createdAt,value
2019-02-27T00:00:33.460Z,56.21
2019-02-27T00:03:02.306Z,56.59
2019-02-27T00:05:31.071Z,56.75
2019-02-27T00:07:59.845Z,56.70
2019-02-27T00:10:28.612Z,56.74
2019-02-27T00:12:57.364Z,57.15
2019-02-27T00:15:26.134Z,57.17
2019-02-27T00:17:54.887Z,57.05
2019-02-27T00:20:23.652Z,57.96
2019-02-27T00:22:52.421Z,58.32
2019-02-27T00:25:21.193Z,58.73
2019-02-27T00:27:50.054Z,58.94
2019-02-27T00:30:18.888Z,59.26
2019-02-27T00:32:50.935Z,59.13
2019-02-27T00:35:18.226Z,59.32
2019-02-27T00:37:47.083Z,59.72
2019-02-27T00:40:15.918Z,59.44
2019-02-27T00:42:44.696Z,59.45
2019-02-27T00:45:13.523Z,58.68
2019-02-27T00:47:42.295Z,58.30
2019-02-27T00:50:11.068Z,58.70
2019-02-27T00:52:39.944Z,58.45
2019-02-27T00:55:09.712Z,58.68
2019-02-27T00:57:38.472Z,59.56
2019-02-27T01:00:15.853Z,58.27
2019-02-27T01:02:44.644Z,58.31
2019-02-27T01:05:13.506Z,57.61
2019-02-27T01:07:42.383Z,58.37
2019-02-27T01:10:12.877Z,58.23
2019-02-27T01:12:41.743Z,57.59
2019-02-27T01:15:12.218Z,57.63
2019-02-27T01:17:40.989Z,58.34
2019-02-27T01:20:12.296Z,58.15
2019-02-27T01:22:41.064Z,57.76
2019-02-27T01:25:09.997Z,58.40
2019-02-27T01:27:38.767Z,58.75
2019-02-27T01:30:13.083Z,58.81
2019-02-27T01:32:41.863Z,59.51
2019-02-27T01:35:11.524Z,58.76
2019-02-27T01:37:40.365Z,59.04
2019-02-27T01:40:11.955Z,59.62
2019-02-27T01:42:40.717Z,60.32
2019-02-27T01:45:12.470Z,59.90
2019-02-27T01:47:41.235Z,60.57
2019-02-27T01:50:30.474Z,60.19
2019-02-27T01:52:59.243Z,60.06
2019-02-27T01:55:28.004Z,60.50
2019-02-27T01:57:56.770Z,59.46
2019-02-27T02:00:25.633Z,60.03
2019-02-27T02:02:54.386Z,60.49
2019-02-27T02:05:26.135Z,60.45
2019-02-27T02:07:53.630Z,59.81
2019-02-27T02:10:22.474Z,59.59
2019-02-27T02:12:54.551Z,59.50
2019-02-27T02:15:27.275Z,59.42
2019-02-27T02:18:11.896Z,60.10
2019-02-27T02:21:03.702Z,60.31
2019-02-27T02:23:44.919Z,60.16
2019-02-27T02:26:38.442Z,60.38
2019-02-27T02:29:22.009Z,59.84
2019-02-27T02:31:53.747Z,59.74
2019-02-27T02:34:31.155Z,60.10
2019-02-27T02:37:20.834Z,60.69
2019-02-27T02:39:54.762Z,61.46
2019-02-27T02:42:40.953Z,61.80
2019-02-27T02:45:24.523Z,63.11
2019-02-27T02:48:20.312Z,63.47
2019-02-27T02:51:11.148Z,64.27
2019-02-27T02:53:49.198Z,64.25
2019-02-27T02:56:29.733Z,64.60
2019-02-27T02:59:34.093Z,64.80
2019-02-27T03:02:05.765Z,64.79
2019-02-27T03:04:55.177Z,65.25
2019-02-27T03:07:26.849Z,64.91
2019-02-27T03:10:17.953Z,64.81
2019-02-27T03:13:07.106Z,64.93
2019-02-27T03:15:37.646Z,64.95
2019-02-27T03:18:18.272Z,65.05
2019-02-27T03:20:53.213Z,64.94
2019-02-27T03:23:52.549Z,65.56
2019-02-27T03:26:33.221Z,65.00
2019-02-27T03:29:17.361Z,65.04
2019-02-27T03:32:01.417Z,64.73
2019-02-27T03:34:50.908Z,65.24
2019-02-27T03:37:24.832Z,65.52
2019-02-27T03:39:59.191Z,65.19
2019-02-27T03:42:36.819Z,65.46
2019-02-27T03:45:30.650Z,65.18
2019-02-27T03:48:04.416Z,66.08
2019-02-27T03:50:56.777Z,66.18
2019-02-27T03:53:46.421Z,66.67
2019-02-27T03:56:33.144Z,66.57
2019-02-27T03:59:06.321Z,66.85
2019-02-27T04:01:41.016Z,67.38
2019-02-27T04:04:29.546Z,67.14
2019-02-27T04:07:14.343Z,67.07
2019-02-27T04:09:43.212Z,67.19
2019-02-27T04:12:16.200Z,67.56
2019-02-27T04:14:42.710Z,67.67
2019-02-27T04:17:11.564Z,67.50
2019-02-27T04:19:40.584Z,66.84
2019-02-27T04:22:09.408Z,66.77
2019-02-27T04:24:38.208Z,66.72
2019-02-27T04:27:06.964Z,66.46
2019-02-27T04:29:40.801Z,65.78
2019-02-27T04:32:09.607Z,65.93
2019-02-27T04:34:36.803Z,65.92
2019-02-27T04:37:05.639Z,65.76
2019-02-27T04:39:35.786Z,65.09
2019-02-27T04:42:04.895Z,65.04
2019-02-27T04:44:35.950Z,65.23
2019-02-27T04:47:04.324Z,65.21
2019-02-27T04:49:34.860Z,65.22
2019-02-27T04:52:03.746Z,65.90
2019-02-27T04:54:32.595Z,65.55
2019-02-27T04:57:01.447Z,64.98
2019-02-27T04:59:30.226Z,65.20
2019-02-27T05:01:59.077Z,64.51
2019-02-27T05:04:27.844Z,64.48
2019-02-27T05:06:56.635Z,64.53
2019-02-27T05:09:25.472Z,64.15
2019-02-27T05:11:54.236Z,64.04
2019-02-27T05:14:24.842Z,64.38
2019-02-27T05:16:53.579Z,64.26
2019-02-27T05:19:22.419Z,64.50
2019-02-27T05:21:52.571Z,64.12
2019-02-27T05:24:21.989Z,63.69
2019-02-27T05:26:50.769Z,63.58
2019-02-27T05:29:19.523Z,63.70
2019-02-27T05:31:50.192Z,63.71
2019-02-27T05:34:18.898Z,62.98
2019-02-27T05:36:47.656Z,63.01
2019-02-27T05:39:17.274Z,62.66
2019-02-27T05:41:46.709Z,63.07
2019-02-27T05:44:15.480Z,62.30
2019-02-27T05:46:44.321Z,62.32
2019-02-27T05:49:13.098Z,61.61
2019-02-27T05:51:41.944Z,61.28
2019-02-27T05:54:10.786Z,61.13
2019-02-27T05:56:39.585Z,61.58
2019-02-27T05:59:08.351Z,61.96
2019-02-27T06:01:38.283Z,61.04
2019-02-27T06:04:07.541Z,61.08
2019-02-27T06:06:36.389Z,60.96
2019-02-27T06:09:10.066Z,60.53
2019-02-27T06:11:37.376Z,60.65
2019-02-27T06:14:06.229Z,61.22
2019-02-27T06:16:37.631Z,60.49
2019-02-27T06:19:05.599Z,60.21
2019-02-27T06:21:34.352Z,60.33
2019-02-27T06:24:03.114Z,60.06
2019-02-27T06:26:32.466Z,60.41
2019-02-27T06:29:01.746Z,60.50
2019-02-27T06:31:30.503Z,61.12
2019-02-27T06:33:59.511Z,61.82
2019-02-27T06:36:28.275Z,61.95
2019-02-27T06:39:00.159Z,62.30
2019-02-27T06:41:27.517Z,62.29
2019-02-27T06:43:58.880Z,61.50
2019-02-27T06:46:26.867Z,61.75
2019-02-27T06:48:56.496Z,61.44
2019-02-27T06:51:25.441Z,61.46
2019-02-27T06:53:54.208Z,61.74
2019-02-27T06:56:23.058Z,61.59
2019-02-27T06:58:51.804Z,61.17
2019-02-27T07:01:20.582Z,61.34
2019-02-27T07:03:49.416Z,61.41
2019-02-27T07:06:21.284Z,60.48
2019-02-27T07:08:48.664Z,61.29
2019-02-27T07:11:17.420Z,61.36
2019-02-27T07:13:46.197Z,61.21
2019-02-27T07:16:15.041Z,60.57
2019-02-27T07:18:43.802Z,60.95
2019-02-27T07:21:12.647Z,60.41
2019-02-27T07:23:41.485Z,60.60
2019-02-27T07:26:10.326Z,59.90
2019-02-27T07:28:43.177Z,59.89
2019-02-27T07:31:09.592Z,59.46
2019-02-27T07:33:40.694Z,59.09
2019-02-27T07:36:08.933Z,59.31
2019-02-27T07:38:37.687Z,58.49
2019-02-27T07:41:06.450Z,58.14
2019-02-27T07:43:35.226Z,57.88
2019-02-27T07:46:03.991Z,57.87
2019-02-27T07:48:32.755Z,56.99
2019-02-27T07:51:02.184Z,56.51
2019-02-27T07:53:30.965Z,56.66
2019-02-27T07:55:59.793Z,56.39
2019-02-27T07:58:28.906Z,55.44
2019-02-27T08:00:59.052Z,54.30
2019-02-27T08:03:28.388Z,54.24
2019-02-27T08:05:59.818Z,52.72
2019-02-27T08:08:28.808Z,51.85
2019-02-27T08:10:58.168Z,51.49
2019-02-27T08:13:29.670Z,51.41
2019-02-27T08:15:58.601Z,51.59
2019-02-27T08:18:30.396Z,51.51
2019-02-27T08:20:59.131Z,51.57
2019-02-27T08:23:28.507Z,51.42
2019-02-27T08:25:57.922Z,51.88
2019-02-27T08:28:27.258Z,51.99
2019-02-27T08:30:56.633Z,51.41
2019-02-27T08:33:26.060Z,50.34
2019-02-27T08:35:55.408Z,48.45
2019-02-27T08:38:24.762Z,44.61
2019-02-27T08:40:57.219Z,43.39
2019-02-27T08:43:25.267Z,43.26
2019-02-27T08:45:54.628Z,41.47
2019-02-27T08:48:23.993Z,40.25
2019-02-27T08:50:53.346Z,40.04
2019-02-27T08:53:25.848Z,39.97
2019-02-27T08:55:53.803Z,41.43
2019-02-27T08:58:23.173Z,41.86
2019-02-27T09:00:52.574Z,42.25
2019-02-27T09:03:22.011Z,42.23
2019-02-27T09:05:53.709Z,42.66
2019-02-27T09:08:22.478Z,45.33
2019-02-27T09:10:51.819Z,45.89
2019-02-27T09:13:21.163Z,45.93
2019-02-27T09:15:50.526Z,45.99
2019-02-27T09:18:19.940Z,45.97
2019-02-27T09:20:53.077Z,45.12
2019-02-27T09:23:20.481Z,45.26
2019-02-27T09:25:57.069Z,45.90
2019-02-27T09:28:20.952Z,45.92
2019-02-27T09:30:50.387Z,47.49
2019-02-27T09:33:20.006Z,46.69
2019-02-27T09:35:50.282Z,46.16
2019-02-27T09:38:24.126Z,46.54
2019-02-27T09:40:50.804Z,46.74
2019-02-27T09:43:20.180Z,47.45
2019-02-27T09:45:49.603Z,47.82
2019-02-27T09:48:19.364Z,48.63
2019-02-27T09:50:49.153Z,49.22
2019-02-27T09:53:18.553Z,51.83
2019-02-27T09:55:48.059Z,53.71
2019-02-27T09:58:17.411Z,54.29
2019-02-27T10:00:59.194Z,54.88
2019-02-27T10:03:26.629Z,54.36
2019-02-27T10:05:55.994Z,53.71
2019-02-27T10:08:26.148Z,53.71
2019-02-27T10:10:55.510Z,54.37
2019-02-27T10:13:24.874Z,54.38
2019-02-27T10:15:54.228Z,54.97
2019-02-27T10:18:23.592Z,55.09
2019-02-27T10:20:52.947Z,55.93
2019-02-27T10:23:22.313Z,56.60
2019-02-27T10:25:51.647Z,57.33
2019-02-27T10:28:21.007Z,57.71
2019-02-27T10:30:50.703Z,57.93
2019-02-27T10:33:20.265Z,57.72
2019-02-27T10:35:49.670Z,57.05
2019-02-27T10:38:18.488Z,57.41
2019-02-27T10:40:47.843Z,56.68
2019-02-27T10:43:17.263Z,56.75
2019-02-27T10:45:49.365Z,55.98
2019-02-27T10:48:17.767Z,55.06
2019-02-27T10:50:47.132Z,54.37
2019-02-27T10:53:16.496Z,53.41
2019-02-27T10:55:46.487Z,54.02
2019-02-27T10:58:16.937Z,53.45
2019-02-27T11:00:47.185Z,52.87
2019-02-27T11:03:16.567Z,53.99
2019-02-27T11:05:45.946Z,53.84
2019-02-27T11:08:15.377Z,53.79
2019-02-27T11:10:44.828Z,53.77
2019-02-27T11:13:14.177Z,53.70
2019-02-27T11:15:44.819Z,54.82
2019-02-27T11:18:14.862Z,54.70
2019-02-27T11:20:44.242Z,55.75
2019-02-27T11:23:13.622Z,54.38
2019-02-27T11:25:43.060Z,54.62
2019-02-27T11:28:12.408Z,54.87
2019-02-27T11:30:42.875Z,54.58
2019-02-27T11:33:24.812Z,54.12
2019-02-27T11:35:43.571Z,53.82
2019-02-27T11:38:12.984Z,53.06
2019-02-27T11:40:42.926Z,52.60
2019-02-27T11:43:12.364Z,52.60
2019-02-27T11:45:41.713Z,51.62
2019-02-27T11:48:11.059Z,51.61
2019-02-27T11:50:40.408Z,51.60
2019-02-27T11:53:09.754Z,50.81
2019-02-27T11:55:39.119Z,51.20
2019-02-27T11:58:08.497Z,49.48
2019-02-27T12:00:37.857Z,50.72
2019-02-27T12:03:08.650Z,51.60
2019-02-27T12:05:38.353Z,52.18
2019-02-27T12:08:07.757Z,52.63
2019-02-27T12:10:37.136Z,53.02
2019-02-27T12:13:06.718Z,53.27
2019-02-27T12:15:36.077Z,53.42
2019-02-27T12:18:05.542Z,53.03
2019-02-27T12:20:34.890Z,52.83
2019-02-27T12:23:07.530Z,52.76
2019-02-27T12:25:36.195Z,53.41
2019-02-27T12:28:06.339Z,52.52
2019-02-27T12:30:37.450Z,52.81
2019-02-27T12:33:07.132Z,51.88
2019-02-27T12:35:37.288Z,51.89
2019-02-27T12:38:08.141Z,51.79
2019-02-27T12:40:37.816Z,51.38
2019-02-27T12:43:07.230Z,50.46
2019-02-27T12:45:36.659Z,50.71
2019-02-27T12:48:06.037Z,52.05
2019-02-27T12:50:35.402Z,51.34
2019-02-27T12:53:04.977Z,50.58
2019-02-27T12:55:36.279Z,49.79
2019-02-27T12:58:05.610Z,49.84
2019-02-27T13:00:35.681Z,50.12
2019-02-27T13:03:08.346Z,50.39
2019-02-27T13:05:36.317Z,49.94
2019-02-27T13:08:05.692Z,50.71
2019-02-27T13:10:35.070Z,50.47
2019-02-27T13:13:04.515Z,50.62
2019-02-27T13:15:33.949Z,50.67
2019-02-27T13:18:03.389Z,50.64
2019-02-27T13:20:34.707Z,51.34
2019-02-27T13:25:34.041Z,49.52
2019-02-27T13:28:03.401Z,49.55
2019-02-27T13:30:32.808Z,49.23
2019-02-27T13:33:02.332Z,48.93
2019-02-27T13:35:31.748Z,48.12
2019-02-27T13:38:01.125Z,47.96
2019-02-27T13:40:35.028Z,47.40
2019-02-27T13:43:02.283Z,47.47
2019-02-27T13:45:33.199Z,47.89
2019-02-27T13:48:05.776Z,48.47
2019-02-27T13:50:33.721Z,48.94
2019-02-27T13:53:03.103Z,48.52
2019-02-27T13:55:32.472Z,47.88
2019-02-27T13:58:03.732Z,48.73
2019-02-27T14:00:35.162Z,48.86
2019-02-27T14:03:04.632Z,49.55
2019-02-27T14:05:36.008Z,49.59
2019-02-27T14:08:05.164Z,50.00
2019-02-27T14:10:34.826Z,49.76
2019-02-27T14:13:08.771Z,49.59
2019-02-27T14:15:35.251Z,49.67
2019-02-27T14:18:04.796Z,49.88
2019-02-27T14:20:34.218Z,50.17
2019-02-27T14:23:03.650Z,50.43
2019-02-27T14:25:33.711Z,50.33
2019-02-27T14:28:03.136Z,50.15
2019-02-27T14:30:50.426Z,50.31
2019-02-27T14:33:20.623Z,50.30
2019-02-27T14:35:50.124Z,50.56
2019-02-27T14:38:21.805Z,51.25
2019-02-27T14:40:50.552Z,51.39
2019-02-27T14:43:19.909Z,51.16
2019-02-27T14:45:50.781Z,50.65
2019-02-27T14:48:21.616Z,49.87
2019-02-27T14:50:51.550Z,50.02
2019-02-27T14:53:21.009Z,50.12
2019-02-27T14:55:50.374Z,50.37
2019-02-27T14:58:24.092Z,49.39
2019-02-27T15:00:50.950Z,49.68
2019-02-27T15:03:20.308Z,49.11
2019-02-27T15:05:49.745Z,49.67
2019-02-27T15:08:19.164Z,49.29
2019-02-27T15:10:48.540Z,48.81
2019-02-27T15:13:17.977Z,47.73
2019-02-27T15:15:47.423Z,49.62
2019-02-27T15:18:16.786Z,49.84
2019-02-27T15:20:46.151Z,50.48
2019-02-27T15:23:15.513Z,50.49
2019-02-27T15:25:44.943Z,51.33
2019-02-27T15:28:14.306Z,52.47
2019-02-27T15:30:46.469Z,53.06
2019-02-27T15:33:16.390Z,53.53
2019-02-27T15:35:45.911Z,54.05
2019-02-27T15:38:15.330Z,54.26
2019-02-27T15:40:45.272Z,54.47
2019-02-27T15:43:17.348Z,55.28
2019-02-27T15:45:47.979Z,55.99
2019-02-27T15:48:16.883Z,56.40
2019-02-27T15:50:46.306Z,57.21
2019-02-27T15:53:15.891Z,58.16
2019-02-27T15:55:45.557Z,58.26
2019-02-27T15:58:14.415Z,57.99
2019-02-27T16:00:43.186Z,58.38
2019-02-27T16:03:12.143Z,58.90
2019-02-27T16:05:40.981Z,59.09
2019-02-27T16:08:09.774Z,59.66
2019-02-27T16:10:42.589Z,59.84
2019-02-27T16:13:09.021Z,59.61
2019-02-27T16:15:37.787Z,60.03
2019-02-27T16:18:06.636Z,59.92
2019-02-27T16:20:35.423Z,60.62
2019-02-27T16:23:05.229Z,60.91
2019-02-27T16:25:34.149Z,60.81
2019-02-27T16:28:02.974Z,60.53
2019-02-27T16:30:33.146Z,60.96
2019-02-27T16:33:02.118Z,60.86
2019-02-27T16:35:30.963Z,61.46
2019-02-27T16:37:59.818Z,61.94
2019-02-27T16:40:29.666Z,62.00
2019-02-27T16:42:58.490Z,61.67
2019-02-27T16:45:33.533Z,62.29
2019-02-27T16:48:01.069Z,62.41
2019-02-27T16:50:29.897Z,61.89
2019-02-27T16:52:58.747Z,62.50
2019-02-27T16:55:28.372Z,62.63
2019-02-27T16:57:57.841Z,62.66
2019-02-27T17:00:31.509Z,63.11
2019-02-27T17:03:00.280Z,63.95
2019-02-27T17:05:29.115Z,64.69
2019-02-27T17:08:02.224Z,64.54
2019-02-27T17:10:33.853Z,65.06
2019-02-27T17:13:02.628Z,65.35
2019-02-27T17:15:34.570Z,65.58
2019-02-27T17:18:02.055Z,66.05
2019-02-27T17:20:30.892Z,66.05
2019-02-27T17:22:59.746Z,65.97
2019-02-27T17:25:29.961Z,66.39
2019-02-27T17:27:59.054Z,66.27
2019-02-27T17:30:30.347Z,66.61
2019-02-27T17:33:01.376Z,66.79
2019-02-27T17:35:29.770Z,67.03
2019-02-27T17:37:58.569Z,67.06
2019-02-27T17:40:29.101Z,67.13
2019-02-27T17:42:58.213Z,67.52
2019-02-27T17:45:27.784Z,67.54
2019-02-27T17:47:56.644Z,67.28
2019-02-27T17:50:31.055Z,66.98
2019-02-27T17:52:56.089Z,66.16
2019-02-27T17:55:24.892Z,65.54
2019-02-27T17:57:57.725Z,64.82
2019-02-27T18:00:51.157Z,64.69
2019-02-27T18:03:20.438Z,64.57
2019-02-27T18:05:49.248Z,65.07
2019-02-27T18:08:18.125Z,66.24
2019-02-27T18:10:47.115Z,67.12
2019-02-27T18:13:15.954Z,66.91
2019-02-27T18:15:44.751Z,67.29
2019-02-27T18:18:13.661Z,67.42
2019-02-27T18:20:42.505Z,67.18
2019-02-27T18:23:11.284Z,67.29
2019-02-27T18:25:42.078Z,67.33
2019-02-27T18:28:10.855Z,67.06
2019-02-27T18:30:39.697Z,67.41
2019-02-27T18:33:13.605Z,67.78
2019-02-27T18:35:39.235Z,68.00
2019-02-27T18:38:08.030Z,67.96
2019-02-27T18:40:36.836Z,68.14
2019-02-27T18:43:05.839Z,68.17
2019-02-27T18:45:34.589Z,68.08
2019-02-27T18:48:03.427Z,67.76
2019-02-27T18:50:32.287Z,68.22
2019-02-27T18:53:01.175Z,68.36
2019-02-27T18:55:31.418Z,68.82
2019-02-27T18:58:00.387Z,68.87
2019-02-27T19:00:30.031Z,68.67
2019-02-27T19:03:04.774Z,68.63
2019-02-27T19:05:33.758Z,68.53
2019-02-27T19:08:02.665Z,68.31
2019-02-27T19:10:33.359Z,68.41
2019-02-27T19:13:02.246Z,68.26
2019-02-27T19:15:31.250Z,67.84
2019-02-27T19:18:00.136Z,67.91
2019-02-27T19:20:31.903Z,67.98
2019-02-27T19:23:00.729Z,68.21
2019-02-27T19:25:34.147Z,68.10
2019-02-27T19:28:00.188Z,67.94
2019-02-27T19:30:29.405Z,68.18
2019-02-27T19:33:01.790Z,68.57
2019-02-27T19:35:28.860Z,68.41
2019-02-27T19:37:57.613Z,68.39
2019-02-27T19:40:29.822Z,68.83
2019-02-27T19:43:02.164Z,68.86
2019-02-27T19:45:31.214Z,68.89
2019-02-27T19:48:00.053Z,69.19
2019-02-27T19:50:29.125Z,69.16
2019-02-27T19:53:03.328Z,68.88
2019-02-27T19:55:30.058Z,68.86
2019-02-27T19:57:58.841Z,69.41
2019-02-27T20:00:34.837Z,69.57
2019-02-27T20:03:02.789Z,70.01
2019-02-27T20:05:31.672Z,70.04
2019-02-27T20:08:02.360Z,70.97
2019-02-27T20:10:33.268Z,70.94
2019-02-27T20:13:01.815Z,70.91
2019-02-27T20:15:30.669Z,70.84
2019-02-27T20:17:59.537Z,70.90
2019-02-27T20:20:30.010Z,70.77
2019-02-27T20:22:58.955Z,70.65
2019-02-27T20:25:29.779Z,70.81
2019-02-27T20:27:58.967Z,70.25
2019-02-27T20:30:27.807Z,70.34
2019-02-27T20:32:56.650Z,70.31
2019-02-27T20:35:25.553Z,70.41
2019-02-27T20:37:54.399Z,70.54
2019-02-27T20:40:23.167Z,70.67
2019-02-27T20:42:54.870Z,70.45
2019-02-27T20:45:26.797Z,70.58
2019-02-27T20:48:00.530Z,70.51
2019-02-27T20:50:35.040Z,70.21
2019-02-27T20:52:59.993Z,70.28
2019-02-27T20:55:30.952Z,70.32
2019-02-27T20:57:59.400Z,70.11
2019-02-27T21:00:28.202Z,70.07
2019-02-27T21:02:57.039Z,69.64
2019-02-27T21:05:26.870Z,69.90
2019-02-27T21:08:00.907Z,69.88
2019-02-27T21:10:34.267Z,69.73
2019-02-27T21:13:03.035Z,69.65
2019-02-27T21:15:32.386Z,69.88
2019-02-27T21:18:02.136Z,69.41
2019-02-27T21:20:33.096Z,69.69
2019-02-27T21:23:01.548Z,69.30
2019-02-27T21:25:30.319Z,69.17
2019-02-27T21:27:59.169Z,69.01
2019-02-27T21:30:27.966Z,69.12
2019-02-27T21:32:56.739Z,69.03
2019-02-27T21:35:28.854Z,69.17
2019-02-27T21:37:56.103Z,69.00
2019-02-27T21:40:24.876Z,68.85
2019-02-27T21:42:53.706Z,68.64
2019-02-27T21:45:23.540Z,68.49
2019-02-27T21:47:52.944Z,68.73
2019-02-27T21:50:25.740Z,68.37
2019-02-27T21:52:55.600Z,68.47
2019-02-27T21:55:24.816Z,68.35
2019-02-27T21:57:53.685Z,68.16
2019-02-27T22:00:24.653Z,68.34
2019-02-27T22:02:54.789Z,68.14
2019-02-27T22:05:23.716Z,68.10
2019-02-27T22:07:52.725Z,67.70
2019-02-27T22:10:21.585Z,67.60
2019-02-27T22:12:50.460Z,67.61
2019-02-27T22:15:29.894Z,67.44
2019-02-27T22:17:58.665Z,67.15
2019-02-27T22:20:27.540Z,67.03
2019-02-27T22:22:56.367Z,67.33
2019-02-27T22:25:30.290Z,67.23
2019-02-27T22:27:58.274Z,67.19
2019-02-27T22:30:26.368Z,67.33
2019-02-27T22:32:55.196Z,67.36
2019-02-27T22:35:24.233Z,67.20
2019-02-27T22:37:53.074Z,67.11
2019-02-27T22:40:25.465Z,67.24
2019-02-27T22:42:54.303Z,67.13
2019-02-27T22:45:23.139Z,67.50
2019-02-27T22:47:54.009Z,67.72
2019-02-27T22:50:22.599Z,67.43
2019-02-27T22:52:54.579Z,67.85
2019-02-27T22:55:22.454Z,67.73
2019-02-27T22:57:51.294Z,67.64
2019-02-27T23:00:49.651Z,67.44
2019-02-27T23:03:18.681Z,67.14
2019-02-27T23:05:47.623Z,67.07
2019-02-27T23:08:16.467Z,67.28
2019-02-27T23:10:45.508Z,67.40
2019-02-27T23:13:14.377Z,67.33
2019-02-27T23:15:43.261Z,67.71
2019-02-27T23:18:12.157Z,68.18
2019-02-27T23:20:40.918Z,68.12
2019-02-27T23:23:09.745Z,67.45
2019-02-27T23:25:38.633Z,66.87
2019-02-27T23:28:07.470Z,66.44
2019-02-27T23:30:36.301Z,66.07
2019-02-27T23:33:05.111Z,65.65
2019-02-27T23:35:33.945Z,65.08
2019-02-27T23:38:03.298Z,64.50
2019-02-27T23:40:32.850Z,64.13
2019-02-27T23:43:03.399Z,63.38
2019-02-27T23:45:32.338Z,63.58
2019-02-27T23:48:02.207Z,63.39
2019-02-27T23:50:31.733Z,62.62
2019-02-27T23:53:00.625Z,62.00
2019-02-27T23:55:29.465Z,61.65
2019-02-27T23:57:58.563Z,61.58
